createdAt,value
2023-01-04T00:01:08.513Z,8.60
2023-01-04T00:03:35.377Z,6.15
2023-01-04T00:06:05.310Z,7.20
2023-01-04T00:08:32.739Z,6.97
2023-01-04T00:11:04.538Z,6.30
2023-01-04T00:13:32.069Z,7.80
2023-01-04T00:16:07.892Z,9.10
2023-01-04T00:18:36.849Z,6.45
2023-01-04T00:21:12.423Z,8.02
2023-01-04T00:23:40.907Z,6.72
2023-01-04T00:26:12.442Z,6.95
2023-01-04T00:28:39.819Z,10.50
2023-01-04T00:31:08.511Z,8.85
2023-01-04T00:33:35.055Z,8.05
2023-01-04T00:36:07.357Z,8.07
2023-01-04T00:38:35.198Z,5.85
2023-01-04T00:41:02.169Z,7.53
2023-01-04T00:43:28.938Z,4.88
2023-01-04T00:45:55.911Z,6.28
2023-01-04T00:48:23.127Z,7.15
2023-01-04T00:50:50.204Z,8.57
2023-01-04T00:53:18.331Z,8.98
2023-01-04T00:55:45.575Z,6.60
2023-01-04T00:58:12.575Z,9.05
2023-01-04T01:00:39.593Z,6.15
2023-01-04T01:03:06.560Z,6.35
2023-01-04T01:05:35.416Z,7.50
2023-01-04T01:08:24.577Z,10.32
2023-01-04T01:10:51.847Z,7.55
2023-01-04T01:13:19.283Z,10.43
2023-01-04T01:15:46.013Z,6.32
2023-01-04T01:18:12.631Z,7.30
2023-01-04T01:20:44.835Z,6.10
2023-01-04T01:23:15.397Z,6.53
2023-01-04T01:25:42.656Z,7.25
2023-01-04T01:28:10.160Z,7.35
2023-01-04T01:30:41.745Z,7.93
2023-01-04T01:33:09.949Z,8.98
2023-01-04T01:35:36.827Z,7.22
2023-01-04T01:38:03.732Z,6.28
2023-01-04T01:40:30.318Z,8.25
2023-01-04T01:42:56.746Z,7.75
2023-01-04T01:45:41.678Z,10.73
2023-01-04T01:48:15.224Z,8.90
2023-01-04T01:50:52.212Z,6.43
2023-01-04T01:53:19.603Z,8.80
2023-01-04T01:55:49.252Z,6.68
2023-01-04T01:58:24.847Z,10.10
2023-01-04T02:00:51.382Z,6.10
2023-01-04T02:03:24.027Z,6.55
2023-01-04T02:05:53.545Z,5.60
2023-01-04T02:08:22.699Z,9.25
2023-01-04T02:10:49.827Z,10.50
2023-01-04T02:13:20.216Z,11.23
2023-01-04T02:15:55.626Z,9.30
2023-01-04T02:18:30.798Z,7.13
2023-01-04T02:21:05.291Z,7.05
2023-01-04T02:24:10.178Z,9.55
2023-01-04T02:26:59.096Z,10.00
2023-01-04T02:29:39.631Z,7.90
2023-01-04T02:32:14.704Z,12.15
2023-01-04T02:35:14.485Z,7.03
2023-01-04T02:37:56.365Z,6.82
2023-01-04T02:40:33.042Z,7.57
2023-01-04T02:43:42.676Z,9.20
2023-01-04T02:46:15.942Z,8.00
2023-01-04T02:49:01.087Z,6.63
2023-01-04T02:51:30.942Z,8.48
2023-01-04T02:54:18.187Z,8.48
2023-01-04T02:56:56.344Z,8.05
2023-01-04T02:59:47.835Z,6.75
2023-01-04T03:02:36.215Z,9.35
2023-01-04T03:05:51.349Z,7.97
2023-01-04T03:08:46.788Z,7.30
2023-01-04T03:11:33.827Z,10.43
2023-01-04T03:14:32.228Z,5.25
2023-01-04T03:17:02.243Z,5.65
2023-01-04T03:19:49.941Z,9.10
2023-01-04T03:22:38.852Z,7.15
2023-01-04T03:25:27.236Z,6.82
2023-01-04T03:28:14.136Z,9.88
2023-01-04T03:31:10.632Z,5.75
2023-01-04T03:33:56.343Z,7.28
2023-01-04T03:36:43.264Z,7.63
2023-01-04T03:39:48.515Z,7.22
2023-01-04T03:42:47.556Z,8.95
2023-01-04T03:45:35.553Z,8.40
2023-01-04T03:48:33.318Z,10.85
2023-01-04T03:51:31.899Z,6.55
2023-01-04T03:54:17.794Z,6.57
2023-01-04T03:56:45.445Z,6.72
2023-01-04T03:59:12.991Z,8.07
2023-01-04T04:01:42.896Z,7.50
2023-01-04T04:04:28.893Z,9.95
2023-01-04T04:07:13.857Z,6.65
2023-01-04T04:09:40.347Z,7.63
2023-01-04T04:12:07.022Z,7.20
2023-01-04T04:14:33.556Z,6.40
2023-01-04T04:17:00.179Z,7.13
2023-01-04T04:19:26.704Z,6.53
2023-01-04T04:21:53.189Z,7.15
2023-01-04T04:24:23.035Z,6.13
2023-01-04T04:26:49.966Z,6.82
2023-01-04T04:29:16.753Z,7.00
2023-01-04T04:31:43.423Z,8.57
2023-01-04T04:34:10.648Z,6.32
2023-01-04T04:36:37.111Z,5.70
2023-01-04T04:39:04.017Z,6.78
2023-01-04T04:41:39.649Z,5.90
2023-01-04T04:44:08.919Z,5.43
2023-01-04T04:46:35.771Z,11.68
2023-01-04T04:49:03.288Z,5.38
2023-01-04T04:51:29.740Z,6.88
2023-01-04T04:53:56.297Z,8.25
2023-01-04T04:56:22.719Z,8.57
2023-01-04T04:58:49.786Z,6.43
2023-01-04T05:01:16.971Z,7.78
2023-01-04T05:03:43.699Z,8.05
2023-01-04T05:06:10.736Z,10.88
2023-01-04T05:08:37.286Z,5.70
2023-01-04T05:11:08.311Z,6.22
2023-01-04T05:13:35.657Z,7.20
2023-01-04T05:16:03.258Z,8.20
2023-01-04T05:18:29.889Z,9.20
2023-01-04T05:20:56.396Z,5.65
2023-01-04T05:23:23.134Z,8.82
2023-01-04T05:25:56.507Z,6.50
2023-01-04T05:28:22.935Z,6.57
2023-01-04T05:30:56.004Z,6.65
2023-01-04T05:33:24.206Z,7.30
2023-01-04T05:35:51.299Z,8.25
2023-01-04T05:38:18.756Z,6.35
2023-01-04T05:40:45.551Z,9.65
2023-01-04T05:43:13.872Z,6.60
2023-01-04T05:45:43.235Z,9.02
2023-01-04T05:48:10.212Z,10.38
2023-01-04T05:50:36.658Z,9.10
2023-01-04T05:53:09.818Z,7.63
2023-01-04T05:55:36.280Z,9.82
2023-01-04T05:58:02.838Z,8.65
2023-01-04T06:00:29.273Z,9.10
2023-01-04T06:02:56.992Z,7.28
2023-01-04T06:05:24.497Z,6.70
2023-01-04T06:07:51.506Z,6.82
2023-01-04T06:10:18.509Z,8.75
2023-01-04T06:12:46.696Z,5.72
2023-01-04T06:15:13.531Z,7.35
2023-01-04T06:17:40.621Z,4.75
2023-01-04T06:20:09.519Z,5.05
2023-01-04T06:22:36.901Z,5.53
2023-01-04T06:25:04.109Z,5.07
2023-01-04T06:27:30.697Z,5.90
2023-01-04T06:29:57.310Z,4.32
2023-01-04T06:32:23.826Z,5.40
2023-01-04T06:34:50.485Z,6.25
2023-01-04T06:37:17.026Z,6.15
2023-01-04T06:39:43.481Z,7.05
2023-01-04T06:42:30.042Z,6.07
2023-01-04T06:44:56.472Z,5.72
2023-01-04T06:47:22.913Z,4.93
2023-01-04T06:49:49.335Z,4.07
2023-01-04T06:52:15.800Z,8.25
2023-01-04T06:54:42.203Z,4.78
2023-01-04T06:57:08.674Z,6.45
2023-01-04T06:59:35.113Z,4.38
2023-01-04T07:02:01.618Z,4.63
2023-01-04T07:04:28.068Z,5.28
2023-01-04T07:06:54.670Z,3.67
2023-01-04T07:09:21.179Z,4.50
2023-01-04T07:11:47.606Z,3.67
2023-01-04T07:14:14.034Z,3.80
2023-01-04T07:16:40.550Z,4.00
2023-01-04T07:19:08.903Z,6.25
2023-01-04T07:21:35.343Z,3.22
2023-01-04T07:24:01.800Z,6.25
2023-01-04T07:26:28.257Z,3.58
2023-01-04T07:29:12.925Z,4.28
2023-01-04T07:31:39.436Z,4.80
2023-01-04T07:34:06.547Z,5.97
2023-01-04T07:36:32.994Z,2.85
2023-01-04T07:39:00.473Z,3.67
2023-01-04T07:41:27.192Z,5.03
2023-01-04T07:43:53.868Z,2.70
2023-01-04T07:46:22.043Z,4.35
2023-01-04T07:48:48.676Z,3.88
2023-01-04T07:51:15.904Z,4.53
2023-01-04T07:53:42.342Z,3.67
2023-01-04T07:56:11.350Z,3.53
2023-01-04T07:58:42.155Z,3.28
2023-01-04T08:01:14.391Z,3.58
2023-01-04T08:03:40.974Z,3.38
2023-01-04T08:06:10.576Z,3.22
2023-01-04T08:08:37.879Z,2.67
2023-01-04T08:11:07.163Z,3.10
2023-01-04T08:13:33.865Z,3.88
2023-01-04T08:16:00.404Z,4.32
2023-01-04T08:18:26.997Z,4.53
2023-01-04T08:21:09.093Z,4.10
2023-01-04T08:23:36.963Z,7.30
2023-01-04T08:26:08.980Z,3.97
2023-01-04T08:28:36.084Z,3.10
2023-01-04T08:31:08.272Z,4.90
2023-01-04T08:33:37.311Z,3.85
2023-01-04T08:36:24.396Z,3.67
2023-01-04T08:38:59.742Z,3.53
2023-01-04T08:44:13.950Z,5.50
2023-01-04T08:46:40.418Z,3.97
2023-01-04T08:49:06.958Z,7.50
2023-01-04T08:51:34.114Z,6.13
2023-01-04T08:54:00.545Z,7.13
2023-01-04T08:56:26.969Z,5.20
2023-01-04T08:58:53.490Z,7.43
2023-01-04T09:01:20.058Z,6.55
2023-01-04T09:03:46.720Z,6.28
2023-01-04T09:06:15.349Z,3.05
2023-01-04T09:08:42.987Z,3.63
2023-01-04T09:11:14.442Z,5.88
2023-01-04T09:13:41.417Z,4.90
2023-01-04T09:16:13.721Z,4.32
2023-01-04T09:18:40.712Z,6.82
2023-01-04T09:21:16.573Z,3.63
2023-01-04T09:23:44.338Z,4.93
2023-01-04T09:26:21.744Z,3.08
2023-01-04T09:28:49.686Z,3.15
2023-01-04T09:31:19.086Z,3.30
2023-01-04T09:36:32.877Z,3.08
2023-01-04T09:38:59.291Z,2.95
2023-01-04T09:41:28.681Z,3.17
2023-01-04T09:44:03.177Z,2.45
2023-01-04T09:46:39.519Z,3.53
2023-01-04T09:49:15.143Z,2.33
2023-01-04T09:51:45.661Z,4.38
2023-01-04T09:54:17.103Z,2.80
2023-01-04T09:56:50.848Z,2.80
2023-01-04T09:59:25.696Z,2.90
2023-01-04T10:01:58.022Z,3.92
2023-01-04T10:04:43.021Z,3.70
2023-01-04T10:07:17.047Z,3.47
2023-01-04T10:09:43.727Z,5.28
2023-01-04T10:12:23.062Z,2.90
2023-01-04T10:15:06.968Z,4.15
2023-01-04T10:18:57.603Z,3.80
2023-01-04T10:21:29.504Z,3.85
2023-01-04T10:23:57.270Z,3.92
2023-01-04T10:26:35.877Z,4.57
2023-01-04T10:29:19.589Z,2.60
2023-01-04T10:31:51.320Z,2.30
2023-01-04T10:34:26.295Z,2.85
2023-01-04T10:36:59.069Z,2.50
2023-01-04T10:39:32.758Z,2.55
2023-01-04T10:42:10.049Z,2.47
2023-01-04T10:44:42.687Z,2.10
2023-01-04T10:47:35.923Z,2.15
2023-01-04T10:50:11.247Z,1.67
2023-01-04T10:52:47.603Z,1.90
2023-01-04T10:55:27.272Z,2.63
2023-01-04T10:57:54.397Z,1.70
2023-01-04T11:00:29.883Z,1.77
2023-01-04T11:03:18.572Z,2.40
2023-01-04T11:05:58.177Z,2.38
2023-01-04T11:08:29.144Z,1.73
2023-01-04T11:11:09.463Z,2.40
2023-01-04T11:13:36.001Z,3.30
2023-01-04T11:16:05.223Z,1.90
2023-01-04T11:18:36.393Z,2.17
2023-01-04T11:21:08.843Z,2.05
2023-01-04T11:23:35.265Z,2.10
2023-01-04T11:26:13.216Z,2.30
2023-01-04T11:28:56.659Z,1.92
2023-01-04T11:31:48.038Z,3.80
2023-01-04T11:34:14.505Z,1.80
2023-01-04T11:36:47.444Z,3.25
2023-01-04T11:39:23.295Z,2.75
2023-01-04T11:42:04.723Z,2.20
2023-01-04T11:44:35.865Z,2.00
2023-01-04T11:47:18.000Z,2.13
2023-01-04T11:49:44.436Z,2.67
2023-01-04T11:52:33.092Z,2.33
2023-01-04T11:55:31.288Z,1.92
2023-01-04T11:58:08.032Z,2.05
2023-01-04T12:00:34.850Z,3.08
2023-01-04T12:03:15.480Z,1.70
2023-01-04T12:05:42.034Z,1.73
2023-01-04T12:08:22.841Z,1.75
2023-01-04T12:10:49.420Z,1.80
2023-01-04T12:13:16.361Z,1.90
2023-01-04T12:15:55.227Z,1.65
2023-01-04T12:18:42.560Z,1.70
2023-01-04T12:21:23.600Z,1.67
2023-01-04T12:23:51.733Z,1.80
2023-01-04T12:26:19.442Z,2.33
2023-01-04T12:28:48.669Z,1.70
2023-01-04T12:31:27.086Z,1.58
2023-01-04T12:33:58.869Z,1.83
2023-01-04T12:36:37.551Z,2.20
2023-01-04T12:39:13.839Z,1.67
2023-01-04T12:41:40.164Z,2.58
2023-01-04T12:44:43.038Z,2.40
2023-01-04T12:47:37.224Z,1.63
2023-01-04T12:50:10.977Z,2.47
2023-01-04T12:53:30.782Z,1.50
2023-01-04T12:55:57.784Z,1.42
2023-01-04T13:01:28.699Z,1.65
2023-01-04T13:04:04.323Z,1.63
2023-01-04T13:06:35.849Z,2.42
2023-01-04T13:09:02.406Z,1.35
2023-01-04T13:11:48.167Z,1.75
2023-01-04T13:14:26.910Z,1.73
2023-01-04T13:17:26.192Z,1.80
2023-01-04T13:19:55.938Z,1.33
2023-01-04T13:22:29.685Z,1.30
2023-01-04T13:24:58.750Z,1.35
2023-01-04T13:27:27.085Z,1.60
2023-01-04T13:29:53.741Z,1.20
2023-01-04T13:32:28.867Z,1.48
2023-01-04T13:35:01.154Z,1.60
2023-01-04T13:37:47.719Z,1.20
2023-01-04T13:40:16.883Z,1.50
2023-01-04T13:42:47.075Z,1.65
2023-01-04T13:45:29.440Z,1.45
2023-01-04T13:47:58.991Z,1.60
2023-01-04T13:50:40.001Z,1.58
2023-01-04T13:53:08.531Z,1.00
2023-01-04T13:55:37.708Z,1.38
2023-01-04T13:58:07.526Z,1.98
2023-01-04T14:00:49.956Z,2.35
2023-01-04T14:03:26.154Z,1.70
2023-01-04T14:05:59.883Z,1.40
2023-01-04T14:08:37.518Z,1.40
2023-01-04T14:11:38.394Z,1.10
2023-01-04T14:14:15.349Z,1.55
2023-01-04T14:16:41.823Z,1.60
2023-01-04T14:19:42.563Z,1.50
2023-01-04T14:22:21.359Z,1.17
2023-01-04T14:27:42.474Z,1.48
2023-01-04T14:30:18.322Z,1.40
2023-01-04T14:32:56.859Z,1.45
2023-01-04T14:35:24.330Z,1.88
2023-01-04T14:37:51.482Z,1.60
2023-01-04T14:40:26.945Z,2.03
2023-01-04T14:42:55.001Z,1.83
2023-01-04T14:45:21.478Z,1.77
2023-01-04T14:47:48.160Z,2.28
2023-01-04T14:50:15.930Z,2.88
2023-01-04T14:52:42.382Z,1.40
2023-01-04T14:55:13.774Z,2.13
2023-01-04T14:57:43.288Z,1.80
2023-01-04T15:00:18.878Z,2.05
2023-01-04T15:02:50.203Z,1.52
2023-01-04T15:05:19.929Z,2.55
2023-01-04T15:07:46.586Z,1.30
2023-01-04T15:10:22.749Z,0.95
2023-01-04T15:12:49.549Z,1.40
2023-01-04T15:15:16.081Z,1.77
2023-01-04T15:17:42.818Z,3.30
2023-01-04T15:20:10.013Z,2.05
2023-01-04T15:22:36.823Z,1.20
2023-01-04T15:25:03.462Z,1.80
2023-01-04T15:27:32.051Z,1.65
2023-01-04T15:30:01.329Z,1.50
2023-01-04T15:32:27.793Z,2.70
2023-01-04T15:34:54.258Z,0.98
2023-01-04T15:37:24.231Z,1.50
2023-01-04T15:39:53.231Z,3.25
2023-01-04T15:42:41.879Z,2.90
2023-01-04T15:45:08.659Z,4.43
2023-01-04T15:47:35.134Z,4.97
2023-01-04T15:50:01.622Z,4.53
2023-01-04T15:52:28.430Z,5.30
2023-01-04T15:54:54.881Z,7.55
2023-01-04T15:57:21.456Z,8.77
2023-01-04T15:59:49.790Z,5.80
2023-01-04T16:02:16.338Z,7.03
2023-01-04T16:04:44.889Z,8.25
2023-01-04T16:07:11.655Z,6.45
2023-01-04T16:09:38.232Z,9.68
2023-01-04T16:12:25.769Z,9.80
2023-01-04T16:14:52.708Z,6.00
2023-01-04T16:17:19.546Z,8.45
2023-01-04T16:19:46.044Z,7.05
2023-01-04T16:22:12.665Z,9.73
2023-01-04T16:27:29.741Z,6.00
2023-01-04T16:30:02.449Z,8.20
2023-01-04T16:32:29.115Z,6.50
2023-01-04T16:34:55.610Z,12.30
2023-01-04T16:37:27.040Z,9.50
2023-01-04T16:40:09.838Z,8.13
2023-01-04T16:42:37.765Z,9.77
2023-01-04T16:45:06.079Z,10.20
2023-01-04T16:47:39.631Z,7.45
2023-01-04T16:50:07.210Z,9.45
2023-01-04T16:52:33.839Z,14.35
2023-01-04T16:55:00.380Z,12.63
2023-01-04T16:57:26.846Z,14.02
2023-01-04T16:59:53.338Z,11.10
2023-01-04T17:02:20.158Z,11.55
2023-01-04T17:04:51.376Z,11.15
2023-01-04T17:07:17.835Z,7.70
2023-01-04T17:09:44.307Z,9.48
2023-01-04T17:12:45.559Z,8.55
2023-01-04T17:17:43.779Z,11.05
2023-01-04T17:20:12.038Z,8.80
2023-01-04T17:22:40.376Z,9.90
2023-01-04T17:25:07.336Z,13.05
2023-01-04T17:27:35.120Z,14.35
2023-01-04T17:30:01.899Z,12.75
2023-01-04T17:32:28.527Z,11.18
2023-01-04T17:34:57.521Z,13.93
2023-01-04T17:37:24.106Z,12.80
2023-01-04T17:39:50.557Z,10.57
2023-01-04T17:42:17.114Z,11.60
2023-01-04T17:44:46.052Z,12.88
2023-01-04T17:47:12.517Z,12.07
2023-01-04T17:49:38.999Z,12.40
2023-01-04T17:52:07.093Z,17.38
2023-01-04T17:54:35.147Z,22.13
2023-01-04T17:57:01.584Z,17.02
2023-01-04T17:59:28.053Z,15.23
2023-01-04T18:01:54.599Z,16.45
2023-01-04T18:04:21.132Z,17.98
2023-01-04T18:06:47.562Z,22.45
2023-01-04T18:09:18.504Z,16.02
2023-01-04T18:11:49.990Z,19.73
2023-01-04T18:14:16.474Z,15.40
2023-01-04T18:16:58.789Z,20.20
2023-01-04T18:19:32.435Z,16.98
2023-01-04T18:21:59.044Z,15.85
2023-01-04T18:24:43.837Z,16.90
2023-01-04T18:27:22.584Z,19.05
2023-01-04T18:29:50.716Z,21.17
2023-01-04T18:32:17.374Z,20.02
2023-01-04T18:34:43.949Z,18.92
2023-01-04T18:37:10.361Z,20.95
2023-01-04T18:39:36.848Z,16.40
2023-01-04T18:42:03.525Z,22.58
2023-01-04T18:44:34.882Z,19.00
2023-01-04T18:47:04.281Z,18.83
2023-01-04T18:49:30.916Z,18.10
2023-01-04T18:51:57.367Z,17.52
2023-01-04T18:54:23.981Z,21.35
2023-01-04T18:56:52.265Z,17.85
2023-01-04T18:59:23.744Z,19.40
2023-01-04T19:01:50.366Z,22.10
2023-01-04T19:04:18.779Z,17.95
2023-01-04T19:06:45.183Z,17.90
2023-01-04T19:09:11.600Z,20.40
2023-01-04T19:11:38.022Z,18.58
2023-01-04T19:14:04.591Z,19.70
2023-01-04T19:16:31.807Z,16.85
2023-01-04T19:18:59.817Z,21.88
2023-01-04T19:21:26.427Z,18.67
2023-01-04T19:23:52.959Z,24.17
2023-01-04T19:26:20.352Z,18.58
2023-01-04T19:28:46.942Z,24.08
2023-01-04T19:31:14.357Z,15.93
2023-01-04T19:33:41.019Z,16.05
2023-01-04T19:36:09.891Z,21.58
2023-01-04T19:38:37.306Z,18.17
2023-01-04T19:41:04.854Z,19.88
2023-01-04T19:43:31.538Z,17.80
2023-01-04T19:45:59.934Z,15.95
2023-01-04T19:48:27.282Z,22.92
2023-01-04T19:51:14.913Z,20.20
2023-01-04T19:53:43.792Z,17.23
2023-01-04T19:56:11.810Z,16.67
2023-01-04T19:58:38.643Z,19.92
2023-01-04T20:01:06.292Z,17.08
2023-01-04T20:03:33.482Z,20.65
2023-01-04T20:06:05.241Z,14.77
2023-01-04T20:08:32.740Z,17.05
2023-01-04T20:11:00.387Z,15.07
2023-01-04T20:13:27.895Z,17.90
2023-01-04T20:15:54.344Z,17.50
2023-01-04T20:18:23.737Z,16.38
2023-01-04T20:20:52.257Z,14.05
2023-01-04T20:23:21.482Z,14.48
2023-01-04T20:25:52.897Z,12.20
2023-01-04T20:28:23.168Z,12.15
2023-01-04T20:31:01.049Z,11.80
2023-01-04T20:33:27.772Z,9.25
2023-01-04T20:35:54.230Z,10.80
2023-01-04T20:38:20.744Z,9.52
2023-01-04T20:40:47.149Z,8.35
2023-01-04T20:43:32.190Z,8.45
2023-01-04T20:46:00.658Z,5.60
2023-01-04T20:48:27.872Z,6.80
2023-01-04T20:50:54.508Z,8.68
2023-01-04T20:53:20.963Z,7.13
2023-01-04T20:55:47.498Z,8.80
2023-01-04T20:58:15.728Z,6.00
2023-01-04T21:00:43.636Z,6.25
2023-01-04T21:03:11.643Z,5.45
2023-01-04T21:05:40.252Z,5.53
2023-01-04T21:08:07.050Z,9.20
2023-01-04T21:10:34.692Z,7.88
2023-01-04T21:13:01.616Z,5.07
2023-01-04T21:15:28.152Z,7.32
2023-01-04T21:17:54.623Z,7.97
2023-01-04T21:20:21.969Z,8.77
2023-01-04T21:22:48.396Z,7.80
2023-01-04T21:25:15.154Z,7.13
2023-01-04T21:27:41.650Z,5.82
2023-01-04T21:30:08.509Z,8.35
2023-01-04T21:32:35.212Z,5.28
2023-01-04T21:35:01.884Z,6.25
2023-01-04T21:37:29.429Z,6.88
2023-01-04T21:39:55.817Z,5.90
2023-01-04T21:42:22.271Z,10.68
2023-01-04T21:44:48.644Z,10.57
2023-01-04T21:47:15.104Z,9.82
2023-01-04T21:49:43.758Z,12.85
2023-01-04T21:52:10.846Z,12.23
2023-01-04T21:54:38.202Z,13.65
2023-01-04T21:57:05.046Z,10.60
2023-01-04T21:59:57.255Z,11.15
2023-01-04T22:02:23.849Z,12.88
2023-01-04T22:04:50.384Z,9.88
2023-01-04T22:07:16.790Z,12.90
2023-01-04T22:09:43.215Z,12.57
2023-01-04T22:12:09.630Z,15.98
2023-01-04T22:14:36.123Z,15.82
2023-01-04T22:17:02.508Z,15.15
2023-01-04T22:19:28.984Z,14.23
2023-01-04T22:21:55.460Z,16.75
2023-01-04T22:24:22.004Z,17.25
2023-01-04T22:26:50.518Z,20.20
2023-01-04T22:29:17.104Z,13.13
2023-01-04T22:31:43.591Z,14.45
2023-01-04T22:34:10.025Z,13.90
2023-01-04T22:36:36.446Z,15.23
2023-01-04T22:39:03.011Z,15.95
2023-01-04T22:41:29.479Z,14.50
2023-01-04T22:44:01.533Z,17.05
2023-01-04T22:46:31.890Z,14.43
2023-01-04T22:49:00.040Z,16.13
2023-01-04T22:51:28.592Z,16.27
2023-01-04T22:53:56.890Z,12.13
2023-01-04T22:56:23.870Z,15.70
2023-01-04T22:58:54.677Z,14.60
2023-01-04T23:01:27.618Z,14.75
2023-01-04T23:03:55.027Z,13.30
2023-01-04T23:06:22.378Z,19.17
2023-01-04T23:08:55.931Z,16.17
2023-01-04T23:11:23.127Z,17.55
2023-01-04T23:13:50.454Z,13.45
2023-01-04T23:16:17.320Z,13.82
2023-01-04T23:18:44.427Z,13.45
2023-01-04T23:21:11.505Z,15.73
2023-01-04T23:23:38.146Z,16.58
2023-01-04T23:26:06.408Z,15.60
2023-01-04T23:28:36.056Z,14.25
2023-01-04T23:31:08.720Z,19.20
2023-01-04T23:33:36.979Z,15.68
2023-01-04T23:36:15.752Z,13.27
2023-01-04T23:38:43.374Z,14.18
2023-01-04T23:41:19.703Z,15.07
2023-01-04T23:43:46.153Z,16.27
2023-01-04T23:46:15.064Z,12.35
2023-01-04T23:48:42.428Z,14.65
2023-01-04T23:51:10.049Z,15.27
2023-01-04T23:53:36.782Z,15.15
2023-01-04T23:56:06.486Z,14.18
2023-01-04T23:58:33.961Z,12.27
